Time;durP1;ratioP1;P1;durP2;ratioP2;P2;SDS_P1;SDS_P2;PMS_P1;PMS_P2;Temp;Humidity;BMP_temperature;BMP_pressure;BME280_temperature;BME280_humidity;BME280_pressure;Samples;Min_cycle;Max_cycle;Signal;HPM_P1;HPM_P2
2021/04/24 00:00:15;;;;;;;14.68;4.60;;;;;;;7.75;45.64;94447.22;5006823;28;20416;-72
2021/04/24 00:02:41;;;;;;;8.13;4.28;;;;;;;7.69;46.30;94448.31;4999000;28;20105;-72
2021/04/24 00:05:10;;;;;;;13.50;5.25;;;;;;;7.64;46.04;94437.78;5005328;28;20454;-72
2021/04/24 00:07:35;;;;;;;11.57;4.28;;;;;;;7.57;46.00;94442.59;5000356;28;20022;-72
2021/04/24 00:10:01;;;;;;;15.10;5.00;;;;;;;7.51;46.21;94438.41;5006632;28;20486;-72
2021/04/24 00:12:27;;;;;;;11.38;4.55;;;;;;;7.51;46.22;94443.72;4995956;28;20056;-72
2021/04/24 00:14:52;;;;;;;15.50;4.43;;;;;;;7.48;46.14;94444.28;4989067;28;20054;-72
2021/04/24 00:17:18;;;;;;;17.10;4.85;;;;;;;7.34;46.14;94442.28;4994452;28;20045;-72
2021/04/24 00:19:43;;;;;;;17.92;5.22;;;;;;;7.36;46.08;94445.44;4997276;28;20036;-72
2021/04/24 00:22:11;;;;;;;15.00;5.07;;;;;;;7.36;46.11;94439.34;4990004;28;20022;-72
2021/04/24 00:24:37;;;;;;;16.15;5.10;;;;;;;7.34;46.13;94442.28;4995943;28;20108;-72
2021/04/24 00:27:03;;;;;;;12.18;4.80;;;;;;;7.30;46.23;94451.84;5009044;28;20153;-72
2021/04/24 00:29:28;;;;;;;22.65;6.03;;;;;;;7.33;46.41;94455.84;4990287;28;20019;-72
2021/04/24 00:31:54;;;;;;;13.45;5.40;;;;;;;7.26;46.42;94445.53;5004616;28;20093;-72
2021/04/24 00:34:19;;;;;;;14.27;5.30;;;;;;;7.25;46.48;94457.22;5005653;28;20034;-71
2021/04/24 00:36:44;;;;;;;20.80;4.85;;;;;;;7.20;46.87;94449.28;5005058;28;20026;-71
2021/04/24 00:39:10;;;;;;;12.50;4.60;;;;;;;7.16;46.71;94443.72;4992686;28;20030;-72
2021/04/24 00:41:35;;;;;;;15.15;4.93;;;;;;;7.12;46.69;94449.88;5007278;28;20088;-72
2021/04/24 00:44:01;;;;;;;18.48;5.10;;;;;;;7.15;46.67;94436.06;5009578;28;20025;-72
2021/04/24 00:46:26;;;;;;;19.00;4.75;;;;;;;7.02;46.98;94440.94;5007581;28;20612;-71
2021/04/24 00:48:52;;;;;;;9.10;3.80;;;;;;;6.96;47.36;94444.69;5002076;28;20025;-71
2021/04/24 00:51:17;;;;;;;11.80;5.13;;;;;;;7.01;47.08;94443.84;5003408;28;20099;-71
2021/04/24 00:53:43;;;;;;;15.68;5.15;;;;;;;7.05;46.80;94444.88;4990360;28;20026;-71
2021/04/24 00:56:08;;;;;;;10.00;4.45;;;;;;;6.98;46.93;94441.75;4998490;28;20052;-71
2021/04/24 00:58:34;;;;;;;10.93;4.97;;;;;;;7.09;46.90;94445.13;5009546;28;20026;-71
2021/04/24 01:01:01;;;;;;;8.20;4.25;;;;;;;6.89;46.86;94438.91;5008335;28;20173;-71
2021/04/24 01:03:27;;;;;;;10.00;4.35;;;;;;;7.01;46.34;94434.03;5009330;28;20129;-71
2021/04/24 01:05:53;;;;;;;13.77;4.40;;;;;;;7.06;46.11;94443.03;5009363;28;20087;-71
2021/04/24 01:08:18;;;;;;;14.52;4.43;;;;;;;7.06;46.34;94443.03;5008019;28;20109;-71
2021/04/24 01:10:44;;;;;;;10.90;4.55;;;;;;;7.16;45.91;94449.03;4997005;28;20033;-71
2021/04/24 01:13:11;;;;;;;18.27;5.20;;;;;;;7.22;45.57;94447.97;5006735;28;20018;-71
2021/04/24 01:15:37;;;;;;;15.80;5.07;;;;;;;7.23;45.62;94444.22;4993169;28;20047;-71
2021/04/24 01:18:09;;;;;;;14.57;4.85;;;;;;;7.22;45.57;94447.97;5000755;28;20038;-69
2021/04/24 01:20:35;;;;;;;17.30;4.85;;;;;;;7.32;46.77;94457.66;5002727;28;20052;-70
2021/04/24 01:23:03;;;;;;;10.50;4.60;;;;;;;7.38;45.43;94450.47;5004950;28;20082;-69
2021/04/24 01:25:28;;;;;;;18.63;5.65;;;;;;;7.41;45.91;94452.59;5002218;28;20034;-69
2021/04/24 01:27:56;;;;;;;11.88;4.28;;;;;;;7.31;44.90;94453.44;5003625;28;20076;-71
2021/04/24 01:30:27;;;;;;;12.45;4.15;;;;;;;7.31;45.55;94445.50;5004928;28;20026;-71
2021/04/24 01:32:53;;;;;;;12.55;4.30;;;;;;;7.36;45.42;94449.97;5002998;28;20482;-70
2021/04/24 01:35:23;;;;;;;13.40;4.43;;;;;;;7.37;45.96;94443.59;5000437;28;20068;-70
2021/04/24 01:37:49;;;;;;;15.70;4.97;;;;;;;7.35;46.51;94443.88;5004726;28;20486;-71
2021/04/24 01:40:17;;;;;;;17.10;4.55;;;;;;;7.35;46.56;94446.53;4993614;28;20121;-70
2021/04/24 01:42:43;;;;;;;9.90;4.50;;;;;;;7.32;46.09;94444.41;4998725;28;20023;-70
2021/04/24 01:45:11;;;;;;;16.60;5.25;;;;;;;7.32;46.05;94448.94;5000755;28;20056;-70
2021/04/24 01:47:39;;;;;;;13.20;4.88;;;;;;;7.26;46.32;94445.53;5000285;28;20027;-70
2021/04/24 01:50:06;;;;;;;9.27;3.67;;;;;;;7.24;46.63;94445.00;5006190;28;20061;-71
2021/04/24 01:52:33;;;;;;;11.45;4.68;;;;;;;7.20;46.71;94451.94;4993015;28;20062;-71
2021/04/24 01:54:59;;;;;;;12.02;4.40;;;;;;;7.17;46.78;94449.84;4998600;28;20086;-71
2021/04/24 01:57:24;;;;;;;16.27;3.90;;;;;;;7.17;46.71;94449.84;4998039;28;20054;-70
2021/04/24 01:59:49;;;;;;;13.15;4.22;;;;;;;7.15;46.96;94446.69;5008195;28;20058;-70
2021/04/24 02:02:15;;;;;;;11.57;3.58;;;;;;;7.13;47.65;94451.47;5003384;28;20049;-70
2021/04/24 02:04:40;;;;;;;11.43;4.13;;;;;;;7.10;47.87;94454.66;4997582;28;20045;-70
2021/04/24 02:07:06;;;;;;;14.05;4.00;;;;;;;7.07;47.73;94463.19;4998470;28;20019;-71
2021/04/24 02:09:31;;;;;;;11.57;3.63;;;;;;;7.05;48.17;94462.66;4996916;28;20132;-71
2021/04/24 02:12:03;;;;;;;13.55;4.68;;;;;;;7.06;46.39;94462.38;4999863;28;20175;-70
2021/04/24 02:14:29;;;;;;;14.45;4.38;;;;;;;7.05;46.83;94460.00;5007997;28;20025;-70
2021/04/24 02:16:54;;;;;;;15.20;4.65;;;;;;;7.08;47.28;94454.13;5001124;28;20026;-70
2021/04/24 02:19:20;;;;;;;8.15;3.75;;;;;;;7.01;47.83;94455.25;4999867;28;20026;-70
2021/04/24 02:21:45;;;;;;;13.95;4.72;;;;;;;7.01;48.04;94455.25;5000557;28;20022;-71
2021/04/24 02:24:11;;;;;;;9.00;4.32;;;;;;;7.03;48.69;94445.16;4998761;28;20030;-71
2021/04/24 02:26:36;;;;;;;14.27;5.18;;;;;;;7.03;48.31;94447.81;5001755;28;20092;-71
2021/04/24 02:29:02;;;;;;;11.48;4.78;;;;;;;7.05;47.35;94450.19;5007669;28;20017;-71
2021/04/24 02:31:28;;;;;;;18.27;5.68;;;;;;;7.10;45.97;94449.34;5004528;28;20033;-70
2021/04/24 02:33:54;;;;;;;11.82;5.22;;;;;;;7.14;46.22;94450.38;5005827;28;20033;-70
2021/04/24 02:36:19;;;;;;;10.05;4.40;;;;;;;7.15;45.82;94454.63;4996529;28;20022;-70
2021/04/24 02:38:52;;;;;;;10.60;4.40;;;;;;;7.17;46.60;94453.28;4996202;28;20541;-70
2021/04/24 02:41:18;;;;;;;9.57;4.35;;;;;;;7.18;46.36;94449.53;5004425;28;20031;-70
2021/04/24 02:43:43;;;;;;;15.55;3.72;;;;;;;7.17;46.79;94440.03;4998497;28;20032;-71
2021/04/24 02:46:08;;;;;;;11.02;4.32;;;;;;;7.12;46.58;94448.00;5001154;28;20100;-71
2021/04/24 02:48:34;;;;;;;11.82;5.03;;;;;;;7.10;46.20;94442.19;5003607;28;20018;-72
2021/04/24 02:51:00;;;;;;;14.13;4.57;;;;;;;7.10;45.92;94449.34;4999640;28;20078;-72
2021/04/24 02:53:25;;;;;;;14.13;4.57;;;;;;;7.13;45.77;94462.06;5006384;28;20478;-71
2021/04/24 02:55:51;;;;;;;13.82;5.65;;;;;;;7.08;45.80;94454.94;4994953;28;20050;-72
2021/04/24 02:58:16;;;;;;;8.82;4.18;;;;;;;7.09;46.24;94455.75;4991119;28;20030;-72
2021/04/24 03:00:42;;;;;;;12.48;4.38;;;;;;;7.05;47.04;94450.19;4996641;28;20029;-72
2021/04/24 03:03:13;;;;;;;12.00;4.78;;;;;;;7.03;46.39;94450.47;5002705;28;20387;-72
2021/04/24 03:05:40;;;;;;;16.13;6.15;;;;;;;7.01;46.75;94452.59;5009586;28;20456;-72
2021/04/24 03:08:06;;;;;;;16.58;6.97;;;;;;;6.99;47.51;94454.72;5001177;28;20057;-72
2021/04/24 03:10:33;;;;;;;12.10;5.35;;;;;;;6.98;46.55;94455.00;5003007;28;20032;-72
2021/04/24 03:12:58;;;;;;;10.45;5.10;;;;;;;7.00;45.85;94458.97;5009121;28;20033;-72
2021/04/24 03:15:24;;;;;;;11.13;4.38;;;;;;;6.97;46.06;94459.50;5010415;28;20049;-72
2021/04/24 03:17:50;;;;;;;22.85;5.57;;;;;;;6.95;47.35;94448.41;5009355;28;20080;-72
2021/04/24 03:20:17;;;;;;;12.52;4.63;;;;;;;6.97;46.41;94454.22;4997555;28;20057;-72
2021/04/24 03:22:43;;;;;;;13.55;4.75;;;;;;;6.88;46.41;94450.56;4991373;28;20117;-72
2021/04/24 03:25:09;;;;;;;8.85;4.28;;;;;;;6.87;46.50;94454.28;4990919;28;20030;-72
2021/04/24 03:27:35;;;;;;;13.70;4.80;;;;;;;6.89;47.01;94462.75;4989540;28;20037;-72
2021/04/24 03:30:02;;;;;;;17.30;4.63;;;;;;;6.87;47.40;94459.56;4990922;28;20018;-71
2021/04/24 03:32:28;;;;;;;16.40;5.07;;;;;;;6.81;47.80;94463.31;4990596;28;20023;-71
2021/04/24 03:34:53;;;;;;;10.38;3.75;;;;;;;6.78;47.64;94461.25;4990831;28;20029;-72
2021/04/24 03:37:19;;;;;;;14.07;3.92;;;;;;;6.72;47.78;94464.97;4991032;28;20030;-71
2021/04/24 03:39:44;;;;;;;12.48;3.63;;;;;;;6.73;45.46;94459.38;4997274;28;20030;-71
2021/04/24 03:42:11;;;;;;;6.93;3.58;;;;;;;6.73;45.38;94456.75;4998777;28;20371;-71
2021/04/24 03:44:37;;;;;;;9.93;3.45;;;;;;;6.78;45.75;94456.72;4989484;28;20439;-71
2021/04/24 03:47:02;;;;;;;15.35;4.18;;;;;;;6.76;47.42;94458.84;4998889;28;20411;-71
2021/04/24 03:49:28;;;;;;;11.02;3.95;;;;;;;6.78;48.50;94469.19;5006703;28;20025;-72
2021/04/24 03:51:53;;;;;;;12.27;3.63;;;;;;;6.82;47.82;94460.41;4993614;28;20072;-71
2021/04/24 03:54:19;;;;;;;8.85;3.75;;;;;;;6.85;44.62;94460.94;4991830;28;20026;-70
2021/04/24 03:56:44;;;;;;;15.68;4.38;;;;;;;6.89;44.35;94460.09;5008910;28;20037;-71
2021/04/24 03:59:09;;;;;;;13.15;4.45;;;;;;;6.85;45.41;94466.22;4995714;28;20101;-71
2021/04/24 04:01:35;;;;;;;14.05;4.80;;;;;;;6.81;45.26;94471.28;5002051;28;20022;-69
2021/04/24 04:04:00;;;;;;;10.07;4.30;;;;;;;6.86;46.00;94481.84;5005199;28;20032;-69
2021/04/24 04:06:25;;;;;;;46.20;5.90;;;;;;;6.93;46.06;94481.53;5003376;28;20038;-70
2021/04/24 04:08:51;;;;;;;15.82;4.13;;;;;;;6.99;45.67;94483.88;4997723;28;20476;-69
2021/04/24 04:11:16;;;;;;;16.08;5.32;;;;;;;6.98;46.53;94477.00;5005898;28;20066;-69
2021/04/24 04:13:42;;;;;;;17.45;4.70;;;;;;;6.96;47.96;94478.34;5003625;28;20413;-68
2021/04/24 04:16:07;;;;;;;12.45;5.38;;;;;;;6.96;48.66;94484.44;4999656;28;20492;-69
2021/04/24 04:18:36;;;;;;;9.75;4.95;;;;;;;7.02;46.94;94483.34;4995450;28;20089;-70
2021/04/24 04:21:04;;;;;;;14.15;3.88;;;;;;;7.01;46.54;94483.63;5010788;28;20025;-70
2021/04/24 04:23:30;;;;;;;13.13;3.58;;;;;;;6.96;46.73;94478.34;5000219;28;20045;-71
2021/04/24 04:25:57;;;;;;;11.30;3.83;;;;;;;6.88;45.73;94479.72;4996475;28;20045;-69
2021/04/24 04:28:23;;;;;;;17.38;4.82;;;;;;;6.85;46.18;94474.97;4996503;28;20037;-69
2021/04/24 04:30:49;;;;;;;10.63;3.88;;;;;;;6.88;45.93;94477.06;5007596;28;20533;-70
2021/04/24 04:33:15;;;;;;;15.75;4.55;;;;;;;6.94;45.46;94480.47;5009692;28;20071;-70
2021/04/24 04:35:41;;;;;;;9.27;3.70;;;;;;;6.97;46.17;94482.59;5008230;28;20053;-70
2021/04/24 04:38:07;;;;;;;12.20;4.32;;;;;;;7.00;46.51;94479.38;5008308;28;20048;-70
2021/04/24 04:40:33;;;;;;;16.85;4.15;;;;;;;7.12;45.86;94487.75;5001230;28;20026;-70
2021/04/24 04:42:59;;;;;;;13.73;4.40;;;;;;;7.25;46.56;94478.41;5004135;28;20085;-70
2021/04/24 04:45:25;;;;;;;11.05;4.13;;;;;;;7.32;47.70;94478.09;4990168;28;20062;-71
2021/04/24 04:47:50;;;;;;;13.45;3.85;;;;;;;7.38;47.22;94485.72;5004051;28;20144;-71
2021/04/24 04:50:23;;;;;;;13.88;4.18;;;;;;;7.48;48.25;94482.22;5007050;28;20568;-71
2021/04/24 04:52:49;;;;;;;20.40;5.25;;;;;;;7.55;49.23;94476.56;4999210;28;20038;-71
2021/04/24 04:55:18;;;;;;;13.82;4.78;;;;;;;7.63;50.13;94473.31;4997918;28;20046;-71
2021/04/24 04:57:45;;;;;;;29.38;6.85;;;;;;;7.73;50.48;94470.56;5009575;28;20511;-71
2021/04/24 05:00:13;;;;;;;33.42;8.30;;;;;;;7.79;50.63;94468.69;5007297;28;20117;-72
2021/04/24 05:02:39;;;;;;;38.75;9.77;;;;;;;7.84;50.42;94466.00;4993699;28;20124;-72
2021/04/24 05:05:06;;;;;;;40.63;10.68;;;;;;;7.91;49.22;94465.66;4999562;28;20032;-71
2021/04/24 05:07:31;;;;;;;26.35;8.30;;;;;;;7.86;48.48;94455.06;5012953;28;20563;-71
2021/04/24 05:09:58;;;;;;;20.65;8.13;;;;;;;7.94;47.13;94465.88;5012352;28;20029;-71
2021/04/24 05:12:23;;;;;;;22.05;6.95;;;;;;;8.00;46.91;94470.06;5005360;28;20056;-71
2021/04/24 05:14:49;;;;;;;16.20;8.55;;;;;;;8.01;46.73;94474.28;4999950;28;20070;-71
2021/04/24 05:17:14;;;;;;;14.02;6.50;;;;;;;8.06;46.65;94468.16;5008986;28;20046;-72
2021/04/24 05:19:40;;;;;;;22.58;6.22;;;;;;;8.09;46.18;94470.22;5012694;28;20030;-72
2021/04/24 05:22:05;;;;;;;19.23;6.57;;;;;;;8.11;46.15;94476.06;5001772;28;20088;-72
2021/04/24 05:24:31;;;;;;;12.85;6.05;;;;;;;8.05;46.19;94482.50;5006674;28;20061;-72
2021/04/24 05:26:56;;;;;;;19.73;5.88;;;;;;;8.01;45.99;94481.47;5004479;28;20456;-71
2021/04/24 05:29:22;;;;;;;20.60;6.22;;;;;;;7.94;47.12;94483.69;5012210;28;20465;-71
2021/04/24 05:31:47;;;;;;;17.30;6.32;;;;;;;7.92;46.76;94483.16;5012529;28;20032;-71
2021/04/24 05:34:13;;;;;;;17.08;5.82;;;;;;;7.90;47.10;94490.63;5011252;28;20084;-71
2021/04/24 05:36:39;;;;;;;23.58;7.30;;;;;;;7.90;47.48;94482.66;4995884;28;20033;-71
2021/04/24 05:39:05;;;;;;;22.08;6.85;;;;;;;7.92;45.90;94483.16;4994959;28;20023;-72
2021/04/24 05:41:31;;;;;;;14.20;5.10;;;;;;;7.87;45.92;94481.34;5007769;28;20109;-72
2021/04/24 05:43:57;;;;;;;23.30;5.97;;;;;;;7.80;46.33;94484.31;5004422;28;20073;-71
2021/04/24 05:46:25;;;;;;;27.73;6.55;;;;;;;7.72;46.51;94484.16;5010393;28;20474;-71
2021/04/24 05:48:51;;;;;;;22.40;7.18;;;;;;;7.74;46.83;94482.78;5006742;28;20018;-71
2021/04/24 05:51:18;;;;;;;17.98;6.53;;;;;;;7.81;46.60;94488.53;4992836;28;20030;-71
2021/04/24 05:53:45;;;;;;;18.92;5.55;;;;;;;7.87;46.19;94486.63;5012158;28;20065;-70
2021/04/24 05:56:10;;;;;;;14.60;6.03;;;;;;;7.91;46.52;94485.00;4993583;28;20034;-70
2021/04/24 05:58:37;;;;;;;13.60;4.85;;;;;;;7.92;45.64;94488.47;4996546;28;20042;-71
2021/04/24 06:01:03;;;;;;;16.58;6.03;;;;;;;7.95;46.00;94486.03;4996319;28;20557;-71
2021/04/24 06:03:28;;;;;;;13.80;6.28;;;;;;;8.06;45.70;94488.59;4995144;28;20046;-71
2021/04/24 06:05:54;;;;;;;13.55;5.78;;;;;;;8.16;44.59;94489.28;4993994;28;20038;-70
2021/04/24 06:08:19;;;;;;;19.17;5.82;;;;;;;8.29;44.36;94482.50;4992216;28;20026;-71
2021/04/24 06:10:44;;;;;;;14.75;5.68;;;;;;;8.41;43.44;94477.59;5010420;28;20112;-72
2021/04/24 06:13:10;;;;;;;15.18;5.70;;;;;;;8.49;43.77;94481.50;5009219;28;20026;-70
2021/04/24 06:15:35;;;;;;;15.90;6.18;;;;;;;8.58;43.44;94482.44;4993445;28;20120;-72
2021/04/24 06:18:01;;;;;;;16.80;5.95;;;;;;;8.59;43.25;94480.59;5004191;28;20370;-71
2021/04/24 06:20:27;;;;;;;18.08;6.22;;;;;;;8.57;42.70;94498.69;4996400;28;20037;-71
2021/04/24 06:22:52;;;;;;;21.52;5.80;;;;;;;8.64;42.52;94496.47;5004722;28;20060;-72
2021/04/24 06:25:19;;;;;;;19.70;7.22;;;;;;;8.68;44.07;94494.81;5010053;28;20114;-72
2021/04/24 06:27:45;;;;;;;16.90;6.60;;;;;;;8.86;43.79;94490.63;5004353;28;20145;-73
2021/04/24 06:30:13;;;;;;;26.63;7.05;;;;;;;8.91;42.72;94492.41;5002872;28;20026;-72
2021/04/24 06:32:39;;;;;;;18.58;5.15;;;;;;;9.00;42.14;94493.34;5010038;28;20034;-72
2021/04/24 06:35:06;;;;;;;18.40;6.25;;;;;;;9.03;43.22;94488.22;5006212;28;20109;-72
2021/04/24 06:37:32;;;;;;;20.80;6.30;;;;;;;9.22;42.85;94498.09;5005864;28;20117;-72
2021/04/24 06:39:57;;;;;;;13.65;6.43;;;;;;;9.36;40.79;94498.16;4999508;28;20121;-72
2021/04/24 06:42:24;;;;;;;18.73;6.47;;;;;;;9.34;41.29;94484.34;4991325;28;20510;-72
2021/04/24 06:44:49;;;;;;;16.98;7.38;;;;;;;9.49;41.68;94486.78;5000822;28;20036;-71
2021/04/24 06:47:15;;;;;;;19.63;6.72;;;;;;;9.64;42.00;94491.84;5010885;28;20101;-72
2021/04/24 06:49:40;;;;;;;18.15;7.05;;;;;;;9.78;41.52;94496.44;5008164;28;20026;-72
2021/04/24 06:52:07;;;;;;;21.02;6.50;;;;;;;9.88;40.77;94495.47;5002364;28;20085;-71
2021/04/24 06:54:33;;;;;;;13.90;5.72;;;;;;;9.97;38.49;94494.50;5002457;28;20057;-71
2021/04/24 06:56:59;;;;;;;8.57;4.53;;;;;;;10.09;37.37;94496.69;5000027;28;20105;-71
2021/04/24 06:59:24;;;;;;;16.15;4.90;;;;;;;10.11;36.38;94493.72;4992213;28;20025;-71
2021/04/24 07:01:50;;;;;;;16.20;5.72;;;;;;;10.13;37.81;94499.56;4998257;28;20022;-72
2021/04/24 07:04:15;;;;;;;14.82;4.93;;;;;;;10.20;37.65;94498.09;5007805;28;20030;-72
2021/04/24 07:06:40;;;;;;;14.30;4.72;;;;;;;10.28;38.09;94499.28;4998058;28;20472;-71
2021/04/24 07:09:06;;;;;;;11.65;4.80;;;;;;;10.40;36.63;94494.28;4991765;28;20401;-72
2021/04/24 07:11:32;;;;;;;17.73;5.38;;;;;;;10.46;35.38;94494.19;5005756;28;20026;-72
2021/04/24 07:13:57;;;;;;;15.90;5.75;;;;;;;10.48;35.55;94484.78;4997564;28;20034;-72
2021/04/24 07:17:43;;;;;;;15.32;5.18;;;;;;;10.38;35.74;94495.66;4997947;28;20072;-72
2021/04/24 07:19:44;;;;;;;16.25;5.20;;;;;;;10.51;35.48;94494.88;4968436;28;20043;-72
2021/04/24 07:22:09;;;;;;;17.60;5.85;;;;;;;10.60;34.59;94493.09;4987797;28;20528;-72
2021/04/24 07:24:35;;;;;;;12.23;5.30;;;;;;;10.76;35.76;94498.13;5006373;28;20041;-73
2021/04/24 07:27:01;;;;;;;14.85;6.18;;;;;;;11.03;36.39;94506.09;5006142;28;20142;-73
2021/04/24 07:29:26;;;;;;;16.80;5.03;;;;;;;11.20;34.07;94504.66;5001173;28;20077;-78
2021/04/24 07:31:52;;;;;;;13.50;5.25;;;;;;;11.19;33.17;94485.22;4993914;28;20036;-74
2021/04/24 07:34:18;;;;;;;17.23;4.30;;;;;;;11.14;32.53;94485.31;4989180;28;20029;-74
2021/04/24 07:36:43;;;;;;;14.65;5.45;;;;;;;11.20;33.65;94485.97;4995632;28;20048;-73
2021/04/24 07:39:09;;;;;;;17.33;4.75;;;;;;;11.38;33.30;94490.38;5009788;28;20410;-74
2021/04/24 07:41:34;;;;;;;10.88;4.68;;;;;;;11.40;33.13;94495.41;5008771;28;20018;-73
2021/04/24 07:44:00;;;;;;;20.02;6.13;;;;;;;11.47;31.66;94486.97;4992769;28;20069;-73
2021/04/24 07:46:26;;;;;;;11.82;5.32;;;;;;;11.58;31.80;94482.97;4994356;28;20471;-74
2021/04/24 07:48:51;;;;;;;11.95;5.38;;;;;;;11.63;29.58;94490.88;4990077;28;20498;-73
2021/04/24 07:51:20;;;;;;;17.15;4.75;;;;;;;11.56;30.32;94480.63;4990029;28;20025;-73
2021/04/24 07:53:45;;;;;;;14.85;4.35;;;;;;;11.72;29.06;94482.91;4994169;28;20026;-74
2021/04/24 07:56:11;;;;;;;11.20;4.35;;;;;;;11.88;29.65;94469.97;5005889;28;20024;-74
2021/04/24 07:58:37;;;;;;;12.00;5.18;;;;;;;12.01;29.76;94469.13;5009471;28;20032;-74
2021/04/24 08:01:03;;;;;;;13.05;5.07;;;;;;;11.95;29.60;94471.16;4991025;28;20029;-73
2021/04/24 08:03:28;;;;;;;12.85;4.90;;;;;;;12.16;29.02;94471.41;4988485;28;20045;-73
2021/04/24 08:05:54;;;;;;;14.77;5.15;;;;;;;12.27;29.28;94473.78;4990834;28;20030;-73
2021/04/24 08:08:20;;;;;;;18.92;5.40;;;;;;;12.37;30.14;94481.53;5008043;28;20024;-74
2021/04/24 08:10:45;;;;;;;11.02;4.55;;;;;;;12.27;28.13;94477.25;5009577;28;20022;-72
2021/04/24 08:13:12;;;;;;;13.55;5.20;;;;;;;12.40;28.43;94480.94;5003968;28;20041;-76
2021/04/24 08:15:37;;;;;;;14.45;4.57;;;;;;;12.50;28.03;94477.97;4997802;28;20184;-71
2021/04/24 08:18:03;;;;;;;15.02;4.80;;;;;;;12.36;27.61;94463.94;4996612;28;20534;-72
2021/04/24 08:20:28;;;;;;;20.60;6.95;;;;;;;12.24;27.91;94464.53;4990416;28;20077;-71
2021/04/24 08:22:54;;;;;;;11.65;5.50;;;;;;;12.20;28.10;94469.69;5004762;28;20021;-71
2021/04/24 08:25:20;;;;;;;15.60;5.38;;;;;;;12.26;28.62;94472.22;5003797;28;20026;-74
2021/04/24 08:27:46;;;;;;;11.77;4.85;;;;;;;12.31;29.11;94464.06;5004003;28;20022;-73
2021/04/24 08:30:16;;;;;;;20.80;5.78;;;;;;;12.41;28.01;94451.19;5004546;28;20038;-71
2021/04/24 08:32:43;;;;;;;19.45;6.55;;;;;;;12.26;27.87;94445.50;5001070;28;20058;-73
2021/04/24 08:35:09;;;;;;;23.55;6.68;;;;;;;12.18;28.59;94442.47;4992080;28;20034;-72
2021/04/24 08:37:35;;;;;;;15.52;5.10;;;;;;;12.05;29.21;94448.72;5001336;28;20026;-72
2021/04/24 08:40:01;;;;;;;13.85;4.72;;;;;;;12.07;28.65;94441.19;5004940;28;20033;-73
2021/04/24 08:42:30;;;;;;;10.95;5.35;;;;;;;12.13;28.73;94439.16;5010279;28;20386;-72
2021/04/24 08:44:55;;;;;;;14.52;5.95;;;;;;;12.12;28.66;94427.69;5001511;28;20022;-73
2021/04/24 08:47:22;;;;;;;12.90;5.13;;;;;;;12.23;28.02;94434.34;4993728;28;20504;-72
2021/04/24 08:49:50;;;;;;;13.43;4.95;;;;;;;12.32;27.33;94425.56;5001347;28;20023;-72
2021/04/24 08:52:19;;;;;;;9.52;5.20;;;;;;;12.36;27.78;94415.81;4992694;28;20042;-72
2021/04/24 08:54:45;;;;;;;11.60;5.40;;;;;;;12.49;27.26;94414.91;4994072;28;20220;-73
2021/04/24 08:57:10;;;;;;;12.70;5.43;;;;;;;12.68;27.57;94411.97;4993896;28;20030;-72
2021/04/24 08:59:36;;;;;;;20.95;6.18;;;;;;;12.93;28.63;94409.63;4992480;28;20117;-73
2021/04/24 09:02:02;;;;;;;10.07;5.10;;;;;;;13.25;28.63;94403.81;4992260;28;20026;-73
2021/04/24 09:04:27;;;;;;;9.02;4.75;;;;;;;13.53;27.26;94406.16;4992567;28;20030;-73
2021/04/24 09:06:54;;;;;;;17.08;4.68;;;;;;;13.73;27.64;94404.69;4992420;28;20481;-73
2021/04/24 09:09:25;;;;;;;10.80;4.68;;;;;;;14.00;26.42;94402.72;5006901;28;20072;-73
2021/04/24 09:11:54;;;;;;;12.88;5.22;;;;;;;14.23;26.80;94396.00;4994480;28;20040;-73
2021/04/24 09:14:23;;;;;;;10.70;4.97;;;;;;;14.42;25.70;94384.09;4993217;28;20030;-71
2021/04/24 09:16:53;;;;;;;10.05;4.03;;;;;;;14.63;24.54;94379.59;4993943;28;20418;-71
2021/04/24 09:19:31;;;;;;;10.38;3.95;;;;;;;14.88;22.37;94373.56;5012573;28;20068;-71
2021/04/24 09:22:12;;;;;;;10.60;3.83;;;;;;;15.08;21.89;94378.13;5010902;28;20559;-72
2021/04/24 09:24:39;;;;;;;11.60;3.83;;;;;;;15.21;21.89;94370.94;4993214;28;20058;-71
2021/04/24 09:27:06;;;;;;;13.93;4.47;;;;;;;15.31;22.08;94370.53;4991780;28;20064;-72
2021/04/24 09:29:31;;;;;;;9.60;4.15;;;;;;;15.35;22.88;94370.66;4998858;28;20022;-71
2021/04/24 09:32:18;;;;;;;16.15;4.78;;;;;;;15.31;21.55;94370.53;4993989;28;20037;-73
2021/04/24 09:34:50;;;;;;;7.90;3.65;;;;;;;15.40;21.21;94357.78;4993041;28;20470;-72
2021/04/24 09:37:21;;;;;;;8.15;3.60;;;;;;;15.28;21.31;94365.81;4995487;28;20561;-73
2021/04/24 09:39:48;;;;;;;10.48;4.43;;;;;;;15.13;22.13;94361.06;5004934;28;20065;-72
2021/04/24 09:42:38;;;;;;;10.73;4.43;;;;;;;15.12;22.51;94352.22;5002755;28;20022;-73
2021/04/24 09:45:23;;;;;;;8.00;4.22;;;;;;;15.15;22.27;94351.56;5001760;28;20112;-72
2021/04/24 09:47:49;;;;;;;9.18;4.30;;;;;;;15.09;22.27;94349.41;5012468;28;20026;-72
2021/04/24 09:50:17;;;;;;;8.82;4.10;;;;;;;15.07;22.35;94336.31;5010702;28;20051;-73
2021/04/24 09:52:43;;;;;;;10.05;4.47;;;;;;;15.11;23.08;94339.91;5007666;28;20489;-72
2021/04/24 09:55:36;;;;;;;11.50;4.55;;;;;;;14.97;21.74;94328.66;5011054;28;20029;-72
2021/04/24 09:58:03;;;;;;;10.02;4.55;;;;;;;14.87;21.81;94327.16;5004581;28;20046;-72
2021/04/24 10:00:29;;;;;;;11.75;4.47;;;;;;;15.02;22.80;94331.13;4992422;28;20427;-72
2021/04/24 10:02:54;;;;;;;8.38;4.03;;;;;;;15.18;23.48;94323.25;4991298;28;20037;-72
2021/04/24 10:05:22;;;;;;;11.45;4.13;;;;;;;15.36;23.36;94323.88;4999300;28;20121;-72
2021/04/24 10:07:50;;;;;;;11.45;3.67;;;;;;;15.47;22.92;94313.50;5007268;28;20025;-72
2021/04/24 10:10:44;;;;;;;8.73;3.80;;;;;;;15.67;22.64;94307.25;5011944;28;20032;-72
2021/04/24 10:13:10;;;;;;;10.48;5.00;;;;;;;15.77;21.93;94314.13;4997717;28;20042;-72
2021/04/24 10:15:43;;;;;;;10.07;4.57;;;;;;;15.83;23.01;94310.91;5011729;28;20045;-72
2021/04/24 10:18:10;;;;;;;11.18;4.15;;;;;;;15.95;23.97;94303.97;5011771;28;20030;-72
2021/04/24 10:20:38;;;;;;;15.45;5.18;;;;;;;16.10;22.97;94297.13;5011650;28;20037;-72
2021/04/24 10:23:07;;;;;;;8.13;4.38;;;;;;;16.18;23.19;94296.22;5011645;28;20104;-73
2021/04/24 10:25:33;;;;;;;15.15;5.18;;;;;;;16.28;23.03;94303.03;5011672;28;20026;-72
2021/04/24 10:27:59;;;;;;;14.23;4.80;;;;;;;16.39;22.37;94299.56;5011021;28;20025;-73
2021/04/24 10:30:25;;;;;;;12.57;4.85;;;;;;;16.38;22.47;94302.59;4990739;28;20100;-72
2021/04/24 10:32:52;;;;;;;11.48;4.45;;;;;;;16.43;22.83;94299.69;5005968;28;20090;-72
2021/04/24 10:35:18;;;;;;;16.52;4.95;;;;;;;16.49;22.98;94297.53;5011180;28;20065;-72
2021/04/24 10:37:53;;;;;;;14.50;4.47;;;;;;;16.50;22.12;94291.03;5010846;28;20030;-73
2021/04/24 10:40:20;;;;;;;22.50;4.80;;;;;;;16.61;22.38;94290.22;5006786;28;20043;-72
2021/04/24 10:42:54;;;;;;;9.88;4.50;;;;;;;16.73;22.82;94293.97;4992597;28;20057;-72
2021/04/24 10:45:33;;;;;;;10.13;4.55;;;;;;;16.80;22.23;94288.81;4990787;28;20192;-73
2021/04/24 10:47:59;;;;;;;10.55;4.53;;;;;;;16.82;22.32;94289.28;4991621;28;20097;-73
2021/04/24 10:50:40;;;;;;;11.25;4.95;;;;;;;16.86;23.21;94284.78;5005044;28;20440;-73
2021/04/24 10:53:26;;;;;;;12.55;4.63;;;;;;;16.86;22.84;94289.41;5006713;28;20045;-73
2021/04/24 10:55:56;;;;;;;12.70;4.78;;;;;;;16.92;22.79;94296.09;4994940;28;20029;-73
2021/04/24 10:58:24;;;;;;;9.20;4.07;;;;;;;16.97;23.27;94301.22;4992334;28;20052;-73
2021/04/24 11:00:52;;;;;;;15.07;4.57;;;;;;;17.01;23.02;94305.59;4991237;28;20034;-71
2021/04/24 11:03:42;;;;;;;15.55;5.25;;;;;;;17.01;22.78;94302.88;4989983;28;20034;-72
2021/04/24 11:06:16;;;;;;;14.38;4.65;;;;;;;16.99;22.38;94301.66;4989182;28;20026;-71
2021/04/24 11:08:42;;;;;;;12.30;4.57;;;;;;;16.93;22.04;94300.34;4991103;28;20022;-71
2021/04/24 11:11:14;;;;;;;11.80;4.38;;;;;;;16.89;22.15;94305.63;4991308;28;20038;-72
2021/04/24 11:13:55;;;;;;;15.27;4.70;;;;;;;16.86;22.99;94311.72;5007488;28;20022;-71
2021/04/24 11:16:24;;;;;;;9.55;4.22;;;;;;;16.84;23.08;94320.13;4995784;28;20042;-72
2021/04/24 11:18:51;;;;;;;12.65;4.65;;;;;;;16.74;23.22;94325.19;4990557;28;20029;-72
2021/04/24 11:21:16;;;;;;;13.10;4.43;;;;;;;16.67;23.18;94316.88;4989522;28;20050;-72
2021/04/24 11:23:53;;;;;;;13.38;4.32;;;;;;;16.63;23.48;94316.78;4991334;28;20572;-73
2021/04/24 11:26:42;;;;;;;7.63;3.97;;;;;;;16.61;23.69;94324.44;5002260;28;20122;-73
2021/04/24 11:29:13;;;;;;;13.73;4.47;;;;;;;16.57;23.75;94313.56;4992921;28;20022;-73
2021/04/24 11:32:07;;;;;;;13.07;4.57;;;;;;;16.59;23.66;94313.22;5008640;28;20489;-73